This is the latest recevied weather packets stored in our database for station/object EA5JUX. If no packets are shown the sender has not sent any weather packets the latest 10 day(s).
| Time | Temp. | Humidity | Pressure | Rain* | Wind** | Luminosity | Snow |
|---|---|---|---|---|---|---|---|
| 1788013635 | 28.89° C | 60% | 1016.8 hPa | 0 mm | - | - | - |
| 1788013335 | 28.89° C | 58% | 1016.7 hPa | 0 mm | - | - | - |
| 1788013035 | 28.33° C | 58% | 1016.9 hPa | 0 mm | - | - | - |
| 1788012734 | 28.89° C | 59% | 1016.9 hPa | 0 mm | - | - | - |
| 1788012435 | 29.44° C | 57% | 1017.2 hPa | 0 mm | - | - | - |
| 1788012135 | 28.89° C | 57% | 1017 hPa | 0 mm | - | - | - |
| 1788011834 | 29.44° C | 56% | 1017.1 hPa | 0 mm | - | - | - |
| 1788011535 | 28.89° C | 58% | 1016.9 hPa | 0 mm | - | - | - |
| 1788011235 | 29.44° C | 55% | 1017.2 hPa | 0 mm | - | - | - |
| 1788010934 | 28.33° C | 59% | 1017.2 hPa | 0 mm | - | - | - |
| 1788010643 | 28.33° C | 58% | 1017.2 hPa | 0 mm | - | - | - |
| 1788010335 | 28.33° C | 59% | 1017.2 hPa | 0 mm | - | - | - |
| 1788010034 | 28.33° C | 59% | 1017.6 hPa | 0 mm | - | - | - |
| 1788009735 | 28.33° C | 58% | 1017.4 hPa | 0 mm | - | - | - |
| 1788009451 | 28.33° C | 57% | 1017.4 hPa | 0 mm | - | - | - |
| 1788009135 | 29.44° C | 57% | 1017.6 hPa | 0 mm | - | - | - |
| 1788008846 | 28.33° C | 57% | 1017.5 hPa | 0 mm | - | - | - |
| 1788008553 | 28.89° C | 57% | 1017.7 hPa | 0 mm | - | - | - |
| 1788008235 | 28.89° C | 57% | 1017.5 hPa | 0 mm | - | - | - |
| 1788007936 | 28.33° C | 57% | 1017.5 hPa | 0 mm | - | - | - |
| 1788007635 | 27.78° C | 59% | 1017.6 hPa | 0 mm | - | - | - |
| 1788007335 | 27.78° C | 60% | 1017.8 hPa | 0 mm | - | - | - |
| 1788007035 | 28.33° C | 57% | 1017.7 hPa | 0 mm | - | - | - |
| 1788006735 | 28.33° C | 57% | 1017.8 hPa | 0 mm | - | - | - |
| 1788006435 | 27.78° C | 59% | 1017.8 hPa | 0 mm | - | - | - |
* Rain latest hour (hover to see other rain measurements)
** Current wind speed in m/s (hover to see current wind gust speed)